KSMO

Santa Monica Municipal Airport

Santa Monica, California, USA
METAR KSMO 170251Z 00000KT 10SM CLR 21/12 A3000 RMK AO2 SLP157 T02110117 53008
Observed Flight Rules
Oct-17 @ 02:51 UTC (58 minutes ago) Visual Flight Rules
Visibility Clouds
10 miles
  • Clear skies
Temperatures Readings
Current 21°C / 70°F
Dewpoint 12°C / 54°F
Humidity 57%
Altimeter 30" Hg
Pressure 1015.7 hPa
Elevation 57
METAR KSMO 170251Z 00000KT 10SM CLR 21/12 A3000 RMK AO2 SLP157 T02110117 53008
Observed Flight Rules
Oct-17 @ 02:51 UTC
(58 minutes ago)
VFR
Clouds
  • Clear skies
Temperature Dewpoint
21°C / 70°F 12°C / 54°F
Humidity Altimeter Pressure
57% 30" Hg 1015.7 hPa